Time;durP1;ratioP1;P1;durP2;ratioP2;P2;SDS_P1;SDS_P2;PMS_P1;PMS_P2;Temp;Humidity;BMP_temperature;BMP_pressure;BME280_temperature;BME280_humidity;BME280_pressure;Samples;Min_cycle;Max_cycle;Signal;HPM_P1;HPM_P2
2021/12/28 00:00:44;;;;;;;21.35;13.68;;;;;;;-11.63;74.97;101725.00;5011861;28;20042;-59
2021/12/28 00:03:10;;;;;;;18.83;11.60;;;;;;;-11.72;74.87;101707.88;5011831;28;20413;-59
2021/12/28 00:05:35;;;;;;;21.97;11.03;;;;;;;-11.65;75.08;101730.13;5012517;28;20061;-59
2021/12/28 00:08:02;;;;;;;22.67;14.03;;;;;;;-11.68;74.84;101727.56;5012322;28;20042;-58
2021/12/28 00:10:28;;;;;;;22.63;11.57;;;;;;;-11.72;74.94;101741.28;5014242;28;20056;-58
2021/12/28 00:12:55;;;;;;;17.60;10.93;;;;;;;-12.08;74.80;101671.91;5016048;28;20545;-61
2021/12/28 00:18:01;;;;;;;20.45;12.27;;;;;;;-12.09;74.56;101683.03;5015841;28;20377;-61
2021/12/28 00:20:28;;;;;;;20.25;11.05;;;;;;;-11.85;74.46;101731.88;5015567;28;20046;-59
2021/12/28 00:22:53;;;;;;;20.85;12.23;;;;;;;-11.94;74.84;101727.56;5016103;28;20041;-57
2021/12/28 00:25:19;;;;;;;20.90;14.00;;;;;;;-12.06;74.58;101706.16;5016414;28;20033;-60
2021/12/28 00:27:44;;;;;;;20.77;12.43;;;;;;;-12.24;74.64;101682.16;5016264;28;20095;-57
2021/12/28 00:30:10;;;;;;;19.87;12.67;;;;;;;-11.92;74.56;101735.28;5015945;28;20034;-59
2021/12/28 00:32:36;;;;;;;24.33;11.95;;;;;;;-11.92;74.65;101741.25;5015240;28;20033;-57
2021/12/28 00:35:04;;;;;;;21.77;13.73;;;;;;;-11.89;74.74;101738.69;5014816;28;20103;-60
2021/12/28 00:37:30;;;;;;;17.63;12.05;;;;;;;-11.95;74.73;101737.84;5015898;28;20037;-59
2021/12/28 00:39:55;;;;;;;21.10;13.13;;;;;;;-11.91;74.28;101742.13;4998698;28;20140;-59
2021/12/28 00:42:21;;;;;;;18.70;12.07;;;;;;;-11.94;74.08;101747.25;5016655;28;20128;-57
2021/12/28 00:44:47;;;;;;;21.38;12.93;;;;;;;-12.05;74.03;101729.28;5017021;28;20068;-57
2021/12/28 00:47:13;;;;;;;21.03;12.70;;;;;;;-12.05;74.55;101733.53;5016158;28;20490;-60
2021/12/28 00:49:39;;;;;;;21.60;13.85;;;;;;;-12.02;74.71;101741.25;5015640;28;20038;-58
2021/12/28 00:52:04;;;;;;;22.10;12.30;;;;;;;-11.97;74.61;101752.38;4999019;28;20034;-58
2021/12/28 00:54:30;;;;;;;24.47;12.50;;;;;;;-12.01;74.45;101755.81;5017325;28;20072;-57
2021/12/28 00:56:55;;;;;;;17.10;12.57;;;;;;;-11.97;74.56;101757.53;5018976;28;20030;-62
2021/12/28 00:59:21;;;;;;;18.03;12.50;;;;;;;-12.11;74.19;101741.25;5017235;28;20030;-56
2021/12/28 01:01:47;;;;;;;17.27;11.47;;;;;;;-12.32;73.92;101709.53;5018714;28;20033;-59
2021/12/28 01:04:14;;;;;;;20.17;11.68;;;;;;;-12.11;74.29;101744.66;5018399;28;20405;-53
2021/12/28 01:06:39;;;;;;;19.45;11.95;;;;;;;-12.06;74.43;101762.66;5018144;28;20084;-58
2021/12/28 01:09:06;;;;;;;20.60;12.23;;;;;;;-12.06;74.09;101752.38;5019251;28;20049;-56
2021/12/28 01:11:32;;;;;;;18.52;11.65;;;;;;;-12.11;74.07;101751.50;5016850;28;20042;-58
2021/12/28 01:13:57;;;;;;;20.90;10.87;;;;;;;-12.13;74.33;101741.25;5014010;28;20557;-58
2021/12/28 01:16:23;;;;;;;20.07;12.33;;;;;;;-12.20;73.97;101757.47;5014587;28;20037;-60
2021/12/28 01:18:48;;;;;;;18.87;12.77;;;;;;;-12.16;74.15;101748.91;5014290;28;20125;-54
2021/12/28 01:21:15;;;;;;;15.75;12.35;;;;;;;-12.11;73.50;101761.78;5013313;28;20123;-60
2021/12/28 01:23:41;;;;;;;17.33;12.15;;;;;;;-12.17;73.88;101761.75;4979334;28;20038;-60
2021/12/28 01:26:06;;;;;;;18.10;12.17;;;;;;;-12.23;74.62;101755.75;5012604;28;20588;-60
2021/12/28 01:28:32;;;;;;;19.43;13.50;;;;;;;-12.20;74.21;101760.88;4994928;28;20072;-57
2021/12/28 01:30:58;;;;;;;23.07;12.37;;;;;;;-12.12;74.65;101760.06;5012839;28;20133;-58
2021/12/28 01:33:24;;;;;;;20.75;12.63;;;;;;;-12.15;74.28;101755.75;4995001;28;20034;-55
2021/12/28 01:35:50;;;;;;;17.20;12.93;;;;;;;-12.13;74.45;101755.78;5013181;28;20030;-60
2021/12/28 01:38:17;;;;;;;23.92;13.30;;;;;;;-12.14;74.20;101760.06;5013030;28;20532;-57
2021/12/28 01:40:43;;;;;;;17.13;12.38;;;;;;;-12.23;73.81;101742.91;5013096;28;20053;-61
2021/12/28 01:43:21;;;;;;;20.48;12.88;;;;;;;-12.15;73.85;101757.47;5013478;28;20033;-59
2021/12/28 01:45:46;;;;;;;22.88;12.75;;;;;;;-12.14;73.63;101761.75;4996038;28;20045;-58
2021/12/28 01:48:20;;;;;;;20.70;14.03;;;;;;;-12.14;73.90;101767.78;5012543;28;20034;-61
2021/12/28 01:50:49;;;;;;;20.00;11.82;;;;;;;-12.36;74.42;101737.75;4994582;28;20061;-59
2021/12/28 01:53:16;;;;;;;32.25;24.77;;;;;;;-12.19;73.76;101766.88;5011050;28;20037;-61
2021/12/28 01:55:46;;;;;;;26.08;17.42;;;;;;;-12.25;74.39;101756.59;4995083;28;20044;-59
2021/12/28 01:58:12;;;;;;;22.73;14.88;;;;;;;-12.16;73.98;101781.44;5011843;28;20038;-59
2021/12/28 02:00:42;;;;;;;21.55;12.77;;;;;;;-12.33;73.81;101759.16;5013788;28;20464;-62
2021/12/28 02:03:11;;;;;;;20.80;12.20;;;;;;;-12.46;73.88;101741.97;5011417;28;20030;-57
2021/12/28 02:05:38;;;;;;;25.42;13.75;;;;;;;-12.25;74.15;101770.28;5011631;28;20084;-55
2021/12/28 02:08:07;;;;;;;19.08;12.65;;;;;;;-12.30;74.13;101769.41;5013135;28;20034;-59
2021/12/28 02:10:33;;;;;;;17.98;12.13;;;;;;;-12.20;73.93;101784.00;5013165;28;20053;-58
2021/12/28 02:12:59;;;;;;;20.33;13.88;;;;;;;-12.54;74.44;101729.13;5012837;28;20149;-59
2021/12/28 02:15:25;;;;;;;24.47;12.53;;;;;;;-12.23;74.31;101781.41;5012673;28;20116;-54
2021/12/28 02:17:51;;;;;;;24.90;13.75;;;;;;;-12.24;74.25;101778.84;5012654;28;20038;-57
2021/12/28 02:20:19;;;;;;;19.90;13.70;;;;;;;-12.52;74.14;101736.81;4994633;28;20573;-59
2021/12/28 02:22:45;;;;;;;19.73;12.50;;;;;;;-12.21;74.49;101795.13;5027808;28;20096;-61
2021/12/28 02:25:13;;;;;;;20.23;12.23;;;;;;;-12.54;74.55;101734.25;5012783;28;20030;-57
2021/12/28 02:27:40;;;;;;;20.50;11.32;;;;;;;-12.27;74.45;101786.53;5012854;28;20033;-59
2021/12/28 02:30:10;;;;;;;21.70;12.98;;;;;;;-12.21;74.18;101796.81;5013064;28;20128;-61
2021/12/28 02:32:38;;;;;;;20.52;12.50;;;;;;;-12.20;74.11;101801.09;5011838;28;20059;-62
2021/12/28 02:35:06;;;;;;;18.75;12.07;;;;;;;-12.24;73.95;101800.25;5011603;28;20423;-57
2021/12/28 02:37:31;;;;;;;20.33;12.75;;;;;;;-12.33;74.15;101787.38;5012330;28;20080;-60
2021/12/28 02:39:57;;;;;;;19.07;13.40;;;;;;;-12.33;74.22;101797.66;4994588;28;20037;-62
2021/12/28 02:42:24;;;;;;;20.47;14.50;;;;;;;-13.05;74.45;101681.00;5012233;28;20034;-58
2021/12/28 02:45:07;;;;;;;25.23;16.10;;;;;;;-12.60;74.79;101753.91;4994466;28;20042;-61
2021/12/28 02:47:34;;;;;;;23.52;15.57;;;;;;;-12.32;74.67;101794.22;5010724;28;20128;-56
2021/12/28 02:50:01;;;;;;;20.90;16.05;;;;;;;-12.37;74.52;101793.34;4994717;28;20046;-56
2021/12/28 02:52:27;;;;;;;24.77;14.88;;;;;;;-12.34;74.47;101805.34;5012105;28;20084;-59
2021/12/28 02:54:53;;;;;;;24.55;15.50;;;;;;;-12.62;74.86;101753.03;4994522;28;20489;-59
2021/12/28 02:57:18;;;;;;;23.37;13.63;;;;;;;-12.29;74.22;101808.78;5012048;28;20040;-58
2021/12/28 02:59:47;;;;;;;19.87;14.23;;;;;;;-12.30;74.46;101813.06;4994048;28;20045;-59
2021/12/28 03:02:13;;;;;;;18.70;13.17;;;;;;;-12.45;74.56;101784.75;4994211;28;20125;-61
2021/12/28 03:04:39;;;;;;;18.63;12.13;;;;;;;-12.41;74.85;101791.63;4994528;28;20707;-59
2021/12/28 03:07:04;;;;;;;24.77;16.13;;;;;;;-12.36;74.55;101805.34;5011617;28;20030;-60
2021/12/28 03:09:30;;;;;;;21.27;15.63;;;;;;;-12.47;74.75;101791.56;5011950;28;20115;-57
2021/12/28 03:11:56;;;;;;;27.20;14.13;;;;;;;-12.32;75.00;101809.63;5011492;28;20069;-62
2021/12/28 03:14:22;;;;;;;25.40;15.43;;;;;;;-12.39;75.06;101800.19;5011590;28;20052;-59
2021/12/28 03:16:48;;;;;;;22.08;15.15;;;;;;;-12.33;74.61;101802.78;4994306;28;20129;-57
2021/12/28 03:19:13;;;;;;;19.60;13.93;;;;;;;-12.32;74.75;101807.06;5010644;28;20034;-57
2021/12/28 03:21:40;;;;;;;26.10;13.70;;;;;;;-12.22;74.79;101813.09;5011761;28;20041;-58
2021/12/28 03:24:08;;;;;;;23.50;14.50;;;;;;;-12.18;74.99;101801.09;4994009;28;20136;-60
2021/12/28 03:26:33;;;;;;;21.95;15.07;;;;;;;-12.36;75.81;101743.72;5011567;28;20052;-59
2021/12/28 03:28:59;;;;;;;27.47;16.60;;;;;;;-11.76;75.05;101818.34;5011138;28;20113;-59
2021/12/28 03:31:25;;;;;;;22.80;14.10;;;;;;;-11.66;74.49;101831.22;5011214;28;20273;-56
2021/12/28 03:33:54;;;;;;;22.63;13.57;;;;;;;-11.71;74.41;101816.63;5011715;28;20045;-59
2021/12/28 03:36:20;;;;;;;;;;;;;;;-11.67;74.28;101832.06;5011528;28;20552;-60
2021/12/28 03:38:47;;;;;;;32.10;21.98;;;;;;;-11.96;74.73;101805.47;5011335;28;19921;-57
2021/12/28 03:41:15;;;;;;;28.58;21.27;;;;;;;-12.05;74.96;101802.88;5011345;28;20536;-58
2021/12/28 03:43:44;;;;;;;27.92;14.50;;;;;;;-12.02;74.99;101806.31;5011586;28;20042;-61
2021/12/28 03:46:12;;;;;;;21.60;13.73;;;;;;;-12.02;74.63;101818.31;5013208;28;20034;-59
2021/12/28 03:48:40;;;;;;;24.67;12.48;;;;;;;-12.41;74.53;101767.69;5015349;28;20265;-58
2021/12/28 03:51:10;;;;;;;25.20;14.18;;;;;;;-12.12;74.87;101809.72;5013941;28;20042;-58
2021/12/28 03:53:36;;;;;;;21.65;13.60;;;;;;;-12.27;74.79;101792.53;5014170;28;20049;-58
2021/12/28 03:56:05;;;;;;;26.10;14.32;;;;;;;-12.13;74.58;101818.28;5015126;28;20444;-57
2021/12/28 03:58:31;;;;;;;24.65;14.07;;;;;;;-12.07;75.11;101832.84;5015494;28;20049;-60
2021/12/28 04:00:57;;;;;;;28.55;16.25;;;;;;;-12.13;75.22;101828.56;5015291;28;20042;-55
2021/12/28 04:03:22;;;;;;;21.08;16.00;;;;;;;-12.15;75.03;101824.22;5015662;28;20046;-57
2021/12/28 04:05:48;;;;;;;24.13;14.07;;;;;;;-12.17;75.35;101826.78;5015497;28;20184;-58
2021/12/28 04:08:21;;;;;;;22.10;15.23;;;;;;;-12.06;75.47;101839.69;5014816;28;20044;-56
2021/12/28 04:10:56;;;;;;;28.08;14.40;;;;;;;-12.07;75.79;101840.53;5015370;28;20042;-61
2021/12/28 04:13:23;;;;;;;28.52;16.25;;;;;;;-12.10;75.47;101826.00;5015319;28;20095;-59
2021/12/28 04:15:48;;;;;;;28.85;18.38;;;;;;;-12.08;75.36;101820.84;5015234;28;20265;-55
2021/12/28 04:18:16;;;;;;;23.70;17.43;;;;;;;-12.05;75.61;101826.00;5015508;28;20478;-53
2021/12/28 04:20:42;;;;;;;25.90;15.07;;;;;;;-11.94;75.43;101829.44;5014556;28;20489;-58
2021/12/28 04:23:08;;;;;;;27.97;15.90;;;;;;;-11.94;75.08;101825.16;5014780;28;20037;-55
2021/12/28 04:25:34;;;;;;;26.85;14.80;;;;;;;-11.96;75.76;101826.03;5030520;28;20099;-58
2021/12/28 04:28:00;;;;;;;30.70;17.80;;;;;;;-11.88;75.54;101835.47;5015465;28;20037;-59
2021/12/28 04:30:26;;;;;;;26.93;13.93;;;;;;;-12.27;75.35;101772.00;5015137;28;20034;-54
2021/12/28 04:32:52;;;;;;;31.27;14.83;;;;;;;-11.96;75.58;101828.59;5015639;28;20061;-57
2021/12/28 04:35:17;;;;;;;26.58;14.63;;;;;;;-12.01;75.52;101812.31;5015502;28;20069;-57
2021/12/28 04:37:44;;;;;;;31.10;16.53;;;;;;;-12.11;75.06;101803.72;5015129;28;20196;-60
2021/12/28 04:40:11;;;;;;;29.85;16.83;;;;;;;-12.06;75.39;101821.72;5015260;28;20409;-61
2021/12/28 04:42:38;;;;;;;22.73;16.77;;;;;;;-12.18;75.37;101808.81;5015596;28;20060;-59
2021/12/28 04:45:07;;;;;;;21.92;14.43;;;;;;;-12.09;75.72;101819.16;5015568;28;20539;-59
2021/12/28 04:47:33;;;;;;;23.58;15.88;;;;;;;-12.14;75.94;101807.97;5016554;28;20037;-56
2021/12/28 04:49:59;;;;;;;24.15;14.80;;;;;;;-12.09;75.89;101819.16;5016600;28;20046;-56
2021/12/28 04:52:25;;;;;;;23.60;15.13;;;;;;;-12.15;75.53;101814.81;5016199;28;20026;-59
2021/12/28 04:54:50;;;;;;;28.58;16.23;;;;;;;-12.13;75.49;101813.13;5016265;28;20555;-54
2021/12/28 04:57:16;;;;;;;25.03;14.63;;;;;;;-12.14;75.69;101810.53;5014749;28;20033;-56
2021/12/28 04:59:42;;;;;;;27.23;15.67;;;;;;;-12.15;75.69;101795.97;5015623;28;20034;-57
2021/12/28 05:02:07;;;;;;;27.13;15.47;;;;;;;-12.08;75.96;101811.44;5015562;28;20042;-56
2021/12/28 05:04:33;;;;;;;27.30;14.83;;;;;;;-12.11;75.74;101811.44;5014745;28;20397;-61
2021/12/28 05:06:59;;;;;;;28.47;16.10;;;;;;;-12.30;75.73;101783.97;5014488;28;20076;-57
2021/12/28 05:09:25;;;;;;;21.87;14.87;;;;;;;-12.19;75.85;101795.13;5014911;28;20288;-55
2021/12/28 05:11:52;;;;;;;24.13;15.15;;;;;;;-12.32;75.71;101770.28;5014440;28;20073;-57
2021/12/28 05:14:19;;;;;;;25.13;14.20;;;;;;;-12.06;75.76;101816.59;5014723;28;20137;-59
2021/12/28 05:16:45;;;;;;;35.05;17.23;;;;;;;-12.17;75.65;101803.69;5014386;28;20044;-59
2021/12/28 05:19:11;;;;;;;31.80;15.82;;;;;;;-12.11;75.87;101810.56;5014224;28;20501;-59
2021/12/28 05:21:37;;;;;;;29.73;18.13;;;;;;;-12.05;75.89;101802.88;5013928;28;20095;-59
2021/12/28 05:24:04;;;;;;;29.03;17.37;;;;;;;-12.16;75.75;101776.28;5014413;28;20033;-57
2021/12/28 05:26:30;;;;;;;31.38;17.58;;;;;;;-11.74;76.13;101825.19;5014371;28;20268;-60
2021/12/28 05:28:55;;;;;;;34.37;18.30;;;;;;;-11.66;75.28;101827.78;5014318;28;20087;-59
2021/12/28 05:31:21;;;;;;;25.90;16.20;;;;;;;-11.64;75.09;101818.38;5014051;28;20065;-57
2021/12/28 05:33:47;;;;;;;32.00;18.93;;;;;;;-11.59;75.38;101824.34;5013963;28;20040;-64
2021/12/28 05:36:13;;;;;;;32.03;20.17;;;;;;;-11.58;75.45;101826.94;5014340;28;20057;-57
2021/12/28 05:38:38;;;;;;;45.87;25.60;;;;;;;-11.50;75.19;101837.25;5014511;28;20499;-60
2021/12/28 05:41:06;;;;;;;36.37;21.93;;;;;;;-11.35;75.67;101847.53;5013754;28;20065;-61
2021/12/28 05:43:31;;;;;;;46.05;22.48;;;;;;;-11.25;75.75;101853.56;5014084;28;20129;-60
2021/12/28 05:45:57;;;;;;;35.23;22.53;;;;;;;-11.12;76.07;101854.41;5013872;28;20045;-57
2021/12/28 05:48:22;;;;;;;36.27;21.23;;;;;;;-11.04;75.39;101839.84;5013870;28;20496;-54
2021/12/28 05:50:48;;;;;;;40.90;23.93;;;;;;;-10.90;75.48;101857.84;5014002;28;20497;-63
2021/12/28 05:53:14;;;;;;;39.50;24.40;;;;;;;-10.81;74.91;101868.13;5014176;28;20037;-60
2021/12/28 05:55:39;;;;;;;45.77;25.83;;;;;;;-10.73;74.69;101856.09;5013717;28;20508;-57
2021/12/28 05:58:05;;;;;;;50.13;28.40;;;;;;;-10.71;75.01;101856.97;5013598;28;20413;-61
2021/12/28 06:00:30;;;;;;;49.80;30.17;;;;;;;-10.68;74.86;101867.28;4996542;28;20038;-58
2021/12/28 06:02:57;;;;;;;45.53;25.67;;;;;;;-10.84;74.75;101819.25;5013924;28;20116;-62
2021/12/28 06:05:24;;;;;;;51.25;29.00;;;;;;;-10.53;74.14;101871.53;5013419;28;20044;-59
2021/12/28 06:07:49;;;;;;;59.58;30.65;;;;;;;-10.53;74.46;101866.38;5013085;28;20071;-60
2021/12/28 06:10:17;;;;;;;54.07;31.53;;;;;;;-10.46;74.73;101873.22;5012729;28;20492;-55
2021/12/28 06:12:44;;;;;;;71.28;36.83;;;;;;;-10.49;74.59;101874.09;5012925;28;20453;-58
2021/12/28 06:15:10;;;;;;;68.53;35.13;;;;;;;-10.44;74.88;101867.22;5013859;28;20079;-60
2021/12/28 06:17:35;;;;;;;67.97;35.63;;;;;;;-10.32;75.19;101871.50;5013322;28;20038;-58
2021/12/28 06:20:01;;;;;;;67.63;35.57;;;;;;;-10.18;74.82;101879.13;5012770;28;20038;-63
2021/12/28 06:22:27;;;;;;;101.60;46.17;;;;;;;-10.03;74.16;101889.41;5012999;28;20029;-58
2021/12/28 06:24:52;;;;;;;87.03;41.40;;;;;;;-9.97;74.04;101891.09;5013007;28;20034;-60
2021/12/28 06:27:19;;;;;;;88.03;42.42;;;;;;;-10.08;74.25;101865.38;5012863;28;20077;-59
2021/12/28 06:29:44;;;;;;;99.27;48.23;;;;;;;-10.18;74.96;101858.53;5013082;28;20037;-59
2021/12/28 06:32:10;;;;;;;84.20;42.90;;;;;;;-9.93;74.91;101890.22;5012620;28;20045;-58
2021/12/28 06:34:36;;;;;;;82.65;38.60;;;;;;;-9.84;74.97;101901.34;5012675;28;20037;-60
2021/12/28 06:37:02;;;;;;;78.57;37.27;;;;;;;-9.83;74.97;101899.63;5012748;28;20038;-58
2021/12/28 06:39:27;;;;;;;82.87;40.43;;;;;;;-9.80;74.75;101887.59;5012664;28;20124;-54
2021/12/28 06:41:53;;;;;;;83.13;40.27;;;;;;;-9.68;74.92;101912.47;4994893;28;20041;-61
2021/12/28 06:44:18;;;;;;;84.80;37.93;;;;;;;-9.56;74.88;101921.84;5012465;28;20034;-57
2021/12/28 06:46:44;;;;;;;79.80;39.40;;;;;;;-9.46;74.90;101920.97;5012489;28;20076;-60
2021/12/28 06:49:10;;;;;;;92.00;43.13;;;;;;;-9.42;75.34;101917.50;5012135;28;20065;-62
2021/12/28 06:51:35;;;;;;;79.73;39.67;;;;;;;-9.35;75.32;101915.72;4995094;28;20034;-61
2021/12/28 06:54:01;;;;;;;83.37;40.63;;;;;;;-9.38;74.79;101901.13;5012315;28;20452;-61
2021/12/28 06:56:26;;;;;;;71.10;38.20;;;;;;;-9.35;74.64;101901.13;5012373;28;20125;-61
2021/12/28 06:58:52;;;;;;;84.90;39.53;;;;;;;-9.30;74.99;101909.69;5012213;28;20060;-56
2021/12/28 07:01:17;;;;;;;86.27;40.83;;;;;;;-9.16;74.42;101932.84;5012046;28;20048;-62
2021/12/28 07:03:43;;;;;;;87.47;40.67;;;;;;;-9.24;74.99;101922.56;5012178;28;20495;-61
2021/12/28 07:06:10;;;;;;;79.47;39.73;;;;;;;-9.12;74.97;101919.03;5012592;28;20042;-57
2021/12/28 07:08:37;;;;;;;84.10;39.88;;;;;;;-9.14;74.90;101907.88;5012385;28;20089;-58
2021/12/28 07:11:04;;;;;;;81.38;40.03;;;;;;;-9.00;74.53;101921.53;5012445;28;20037;-57
2021/12/28 07:13:29;;;;;;;83.97;44.00;;;;;;;-9.06;74.70;101914.69;5012395;28;20053;-56
2021/12/28 07:15:55;;;;;;;87.57;41.67;;;;;;;-9.00;75.13;101918.09;5012232;28;20034;-55
2021/12/28 07:18:21;;;;;;;82.33;42.47;;;;;;;-8.89;75.07;101936.97;5012246;28;20026;-58
2021/12/28 07:20:48;;;;;;;83.73;46.20;;;;;;;-9.00;75.42;101902.59;5015466;28;20042;-56
2021/12/28 07:23:15;;;;;;;90.40;47.78;;;;;;;-8.91;75.22;101923.19;5016805;28;20217;-58
2021/12/28 07:25:40;;;;;;;102.50;52.95;;;;;;;-9.10;76.11;101918.16;5016477;28;20042;-54
2021/12/28 07:28:09;;;;;;;88.72;47.30;;;;;;;-9.10;76.81;101941.38;5016179;28;20509;-54
2021/12/28 07:30:35;;;;;;;95.70;52.03;;;;;;;-9.25;76.19;101902.78;4998533;28;20034;-60
2021/12/28 07:33:00;;;;;;;104.10;49.57;;;;;;;-9.10;76.67;101920.75;5016254;28;20485;-59
2021/12/28 07:35:26;;;;;;;97.43;50.73;;;;;;;-8.92;75.83;101935.25;5016564;28;20045;-52
2021/12/28 07:37:53;;;;;;;93.07;49.37;;;;;;;-9.01;75.91;101906.06;5016659;28;20034;-56
2021/12/28 07:40:19;;;;;;;90.60;42.47;;;;;;;-8.76;76.25;101929.09;5016343;28;20049;-59
2021/12/28 07:42:45;;;;;;;89.07;43.30;;;;;;;-8.53;75.89;101940.97;5015963;28;20049;-60
2021/12/28 07:45:12;;;;;;;89.87;40.83;;;;;;;-8.45;75.49;101944.31;5015945;28;20038;-61
2021/12/28 07:47:38;;;;;;;87.80;39.15;;;;;;;-8.31;74.82;101944.19;5015737;28;20037;-59
2021/12/28 07:50:07;;;;;;;90.27;45.93;;;;;;;-8.49;75.00;101922.84;5016241;28;20040;-57
2021/12/28 07:52:33;;;;;;;67.55;38.97;;;;;;;-8.51;75.61;101924.59;5015649;28;20356;-56
2021/12/28 07:54:58;;;;;;;78.97;41.03;;;;;;;-8.37;75.10;101941.69;5015598;28;20065;-56
2021/12/28 07:57:24;;;;;;;82.33;37.60;;;;;;;-8.32;74.95;101951.09;5015723;28;20130;-59
2021/12/28 07:59:49;;;;;;;76.47;41.03;;;;;;;-8.32;75.15;101945.06;5015529;28;20044;-59
2021/12/28 08:02:15;;;;;;;76.63;39.07;;;;;;;-8.24;75.21;101943.25;5015572;28;20413;-60
2021/12/28 08:04:40;;;;;;;75.03;42.13;;;;;;;-8.25;75.16;101946.72;5015684;28;20080;-59
2021/12/28 08:07:06;;;;;;;86.83;47.23;;;;;;;-8.36;75.42;101926.19;5030937;28;20481;-60
2021/12/28 08:09:33;;;;;;;87.63;43.87;;;;;;;-8.31;75.43;101946.78;4997699;28;20054;-60
2021/12/28 08:11:58;;;;;;;89.15;44.40;;;;;;;-8.31;75.63;101947.63;5015302;28;20579;-59
2021/12/28 08:14:24;;;;;;;72.87;40.23;;;;;;;-8.36;76.18;101948.59;5015733;28;20049;-59
2021/12/28 08:16:49;;;;;;;69.37;38.27;;;;;;;-8.40;76.43;101934.81;5015932;28;20034;-58
2021/12/28 08:19:14;;;;;;;64.10;36.10;;;;;;;-8.29;76.38;101943.31;5015245;28;20033;-55
2021/12/28 08:21:40;;;;;;;61.73;34.20;;;;;;;-8.14;76.31;101955.19;5015044;28;20088;-59
2021/12/28 08:24:06;;;;;;;57.90;30.67;;;;;;;-8.18;76.66;101938.00;5014994;28;20042;-58
2021/12/28 08:26:32;;;;;;;56.45;28.70;;;;;;;-8.09;76.15;101939.63;5015094;28;20030;-57
2021/12/28 08:28:58;;;;;;;43.83;26.23;;;;;;;-8.00;76.30;101939.56;5014900;28;20053;-58
2021/12/28 08:31:23;;;;;;;56.27;27.03;;;;;;;-8.00;76.34;101926.66;5014910;28;20497;-57
2021/12/28 08:33:49;;;;;;;42.73;21.97;;;;;;;-7.96;76.34;101939.50;5015127;28;20041;-57
2021/12/28 08:36:15;;;;;;;35.07;20.90;;;;;;;-8.02;76.24;101931.84;5015044;28;20037;-59
2021/12/28 08:38:43;;;;;;;42.87;25.97;;;;;;;-7.92;76.12;101938.59;5015165;28;20053;-62
2021/12/28 08:41:09;;;;;;;48.67;23.65;;;;;;;-7.83;76.26;101938.50;5014661;28;20299;-58
2021/12/28 08:43:35;;;;;;;49.47;27.42;;;;;;;-7.76;75.64;101941.03;5014454;28;20117;-54
2021/12/28 08:46:00;;;;;;;53.27;26.93;;;;;;;-7.73;75.22;101944.44;5017948;28;20030;-55
2021/12/28 08:48:26;;;;;;;65.90;32.97;;;;;;;-8.07;74.10;101894.84;5024623;28;20069;-59
2021/12/28 08:50:51;;;;;;;82.70;42.30;;;;;;;-7.93;74.14;101955.00;5025114;28;20034;-55
2021/12/28 08:53:17;;;;;;;66.63;38.70;;;;;;;-8.19;74.36;101941.47;4997566;28;20038;-62
2021/12/28 08:55:42;;;;;;;80.13;41.37;;;;;;;-8.34;74.39;101915.84;5014356;28;20030;-55
2021/12/28 08:58:08;;;;;;;73.73;41.97;;;;;;;-8.22;74.51;101955.28;5014300;28;20029;-57
2021/12/28 09:00:36;;;;;;;71.53;37.50;;;;;;;-8.00;73.94;101968.88;5014268;28;20116;-56
2021/12/28 09:03:02;;;;;;;67.40;36.42;;;;;;;-8.02;74.21;101955.09;5014507;28;20040;-60
2021/12/28 09:05:29;;;;;;;72.43;38.22;;;;;;;-8.09;74.37;101943.13;5018377;28;20038;-61
2021/12/28 09:07:55;;;;;;;75.18;39.53;;;;;;;-8.01;74.20;101969.75;5033830;28;20033;-59
2021/12/28 09:10:25;;;;;;;76.20;39.38;;;;;;;-8.21;74.50;101949.25;5016214;28;20053;-60
2021/12/28 09:12:52;;;;;;;59.67;35.60;;;;;;;-8.51;74.47;101908.22;5014462;28;20042;-58
2021/12/28 09:15:18;;;;;;;68.72;35.80;;;;;;;-8.31;74.56;101949.34;5014735;28;20088;-55
2021/12/28 09:17:43;;;;;;;69.70;35.10;;;;;;;-8.27;74.49;101958.78;5014259;28;20038;-56
2021/12/28 09:20:14;;;;;;;77.03;38.30;;;;;;;-8.41;74.41;101952.91;5014206;28;20141;-58
2021/12/28 09:22:40;;;;;;;76.90;38.78;;;;;;;-8.49;74.24;101952.97;5013933;28;20129;-57
2021/12/28 09:25:06;;;;;;;68.43;35.13;;;;;;;-8.50;74.44;101970.22;5014091;28;20049;-59
2021/12/28 09:27:32;;;;;;;65.13;36.50;;;;;;;-8.47;74.83;101972.75;5013662;28;20037;-61
2021/12/28 09:30:23;;;;;;;70.85;34.05;;;;;;;-8.50;74.90;101936.63;5014121;28;20053;-59
2021/12/28 09:32:49;;;;;;;66.32;34.33;;;;;;;-8.44;75.42;101946.03;5013669;28;20050;-57
2021/12/28 09:35:15;;;;;;;64.03;30.77;;;;;;;-8.38;74.55;101950.28;5013684;28;20037;-59
2021/12/28 09:37:41;;;;;;;60.08;29.05;;;;;;;-8.36;74.47;101953.75;5013575;28;20482;-55
2021/12/28 09:40:10;;;;;;;59.10;29.10;;;;;;;-8.30;74.27;101959.69;5013696;28;20052;-57
2021/12/28 09:42:36;;;;;;;59.70;28.13;;;;;;;-8.38;73.98;101963.22;5012921;28;20030;-60
2021/12/28 09:45:03;;;;;;;57.27;31.93;;;;;;;-8.53;74.71;101944.41;5013609;28;20269;-56
2021/12/28 09:47:29;;;;;;;59.40;26.60;;;;;;;-8.58;74.61;101959.09;5013482;28;20281;-60
2021/12/28 09:49:54;;;;;;;42.87;24.63;;;;;;;-8.62;75.12;101947.06;5013405;28;20049;-57
2021/12/28 09:52:20;;;;;;;48.73;24.33;;;;;;;-8.63;75.63;101945.38;4995709;28;20037;-58
2021/12/28 09:54:46;;;;;;;44.17;23.93;;;;;;;-8.50;75.69;101946.97;5013473;28;20159;-57
2021/12/28 09:57:16;;;;;;;45.67;24.83;;;;;;;-8.19;74.92;101956.97;5013591;28;20038;-60
2021/12/28 09:59:42;;;;;;;39.03;23.58;;;;;;;-8.07;74.29;101954.28;5013141;28;20042;-60
2021/12/28 10:02:10;;;;;;;36.37;21.20;;;;;;;-8.15;73.87;101948.31;5013002;28;20041;-54
2021/12/28 10:05:07;;;;;;;33.47;19.80;;;;;;;-8.21;74.57;101953.56;5013137;28;20502;-62
2021/12/28 10:07:37;;;;;;;39.95;21.02;;;;;;;-8.22;74.62;101964.75;5012710;28;20515;-57
2021/12/28 10:10:07;;;;;;;43.05;23.77;;;;;;;-8.19;75.18;101962.16;5024916;28;20082;-61
2021/12/28 10:12:41;;;;;;;40.33;22.88;;;;;;;-8.26;74.20;101950.16;4993403;28;20047;-54
2021/12/28 10:15:14;;;;;;;48.35;23.00;;;;;;;-8.50;75.31;101904.78;4993237;28;20039;-62
2021/12/28 10:17:42;;;;;;;32.42;19.42;;;;;;;-8.08;75.13;101950.00;4993591;28;20132;-58
2021/12/28 10:20:16;;;;;;;40.17;21.75;;;;;;;-7.84;74.47;101960.06;4992000;28;20629;-58
2021/12/28 10:23:10;;;;;;;49.53;20.98;;;;;;;-7.64;74.19;101961.56;4993419;28;20057;-55
2021/12/28 10:25:38;;;;;;;44.78;22.60;;;;;;;-7.67;73.67;101925.41;4992941;28;20042;-57
2021/12/28 10:28:07;;;;;;;43.28;20.67;;;;;;;-7.62;72.89;101939.13;4993093;28;20026;-61
2021/12/28 10:30:37;;;;;;;47.03;23.85;;;;;;;-7.55;72.61;101961.44;4993391;28;20141;-59
2021/12/28 10:33:07;;;;;;;42.97;20.90;;;;;;;-7.59;73.31;101955.47;4993759;28;20040;-57
2021/12/28 10:35:36;;;;;;;45.85;21.85;;;;;;;-7.59;72.55;101952.00;4993735;28;20053;-61
2021/12/28 10:38:06;;;;;;;35.72;18.92;;;;;;;-7.50;72.80;101957.09;4994747;28;20037;-57
2021/12/28 10:40:41;;;;;;;49.25;21.67;;;;;;;-7.49;72.45;101948.47;4994942;28;20130;-61
2021/12/28 10:43:36;;;;;;;47.05;22.88;;;;;;;-7.72;73.16;101925.44;4994754;28;20038;-60
2021/12/28 10:46:09;;;;;;;46.38;22.65;;;;;;;-7.75;73.61;101933.25;4993780;28;20136;-58
2021/12/28 10:48:38;;;;;;;41.40;21.90;;;;;;;-7.68;73.79;101949.53;4994868;28;20034;-56
2021/12/28 10:51:10;;;;;;;41.78;22.83;;;;;;;-7.68;73.77;101950.41;4993525;28;20045;-55
2021/12/28 10:54:01;;;;;;;43.60;22.08;;;;;;;-7.65;73.53;101952.09;4993502;28;20061;-55
2021/12/28 10:56:30;;;;;;;48.75;22.00;;;;;;;-7.56;74.49;101960.59;4993791;28;20351;-59
2021/12/28 10:58:56;;;;;;;42.80;22.27;;;;;;;-7.62;73.58;101934.81;4993930;28;20034;-60
2021/12/28 11:01:28;;;;;;;55.57;24.63;;;;;;;-7.58;73.98;101945.97;4993125;28;20049;-62
2021/12/28 11:03:57;;;;;;;43.70;21.70;;;;;;;-7.60;74.06;101927.03;4992870;28;20518;-59
2021/12/28 11:06:28;;;;;;;42.75;21.50;;;;;;;-7.58;74.27;101953.72;4992620;28;20393;-57